Time;durP1;ratioP1;P1;durP2;ratioP2;P2;SDS_P1;SDS_P2;PMS_P1;PMS_P2;Temp;Humidity;BMP_temperature;BMP_pressure;BME280_temperature;BME280_humidity;BME280_pressure;Samples;Min_cycle;Max_cycle;Signal;HPM_P1;HPM_P2
2022/10/28 00:01:14;;;;;;;17.60;13.60;;;;;;;10.89;86.24;100675.39;107015;1300;22300;-54
2022/10/28 00:03:42;;;;;;;25.70;14.60;;;;;;;10.90;86.34;100675.34;107024;1303;22203;-53
2022/10/28 00:06:14;;;;;;;20.90;14.00;;;;;;;10.91;86.08;100671.17;107016;1298;22197;-54
2022/10/28 00:08:41;;;;;;;18.80;13.20;;;;;;;10.92;86.31;100669.95;107029;1300;23447;-54
2022/10/28 00:11:07;;;;;;;22.70;14.20;;;;;;;10.93;86.14;100671.40;107021;1299;22278;-54
2022/10/28 00:13:34;;;;;;;;;;;;;;;10.94;86.17;100674.74;107046;1300;23289;-54
2022/10/28 00:16:12;;;;;;;19.20;15.10;;;;;;;10.94;86.12;100674.49;107046;1300;22136;-54
2022/10/28 00:18:39;;;;;;;16.70;11.70;;;;;;;10.94;86.01;100674.04;107053;1300;22986;-54
2022/10/28 00:21:09;;;;;;;17.80;12.00;;;;;;;10.93;86.05;100675.77;107035;1291;22124;-54
2022/10/28 00:23:36;;;;;;;15.10;11.30;;;;;;;10.92;86.03;100677.49;106996;1300;22202;-54
2022/10/28 00:26:12;;;;;;;;;;;;;;;10.93;85.80;100682.69;107036;1300;22439;-54
2022/10/28 00:28:41;;;;;;;22.10;12.00;;;;;;;10.93;85.78;100678.33;107066;1276;22878;-54
2022/10/28 00:31:08;;;;;;;15.90;10.20;;;;;;;10.91;85.97;100679.65;107009;1300;22209;-54
2022/10/28 00:33:36;;;;;;;14.50;10.40;;;;;;;10.90;85.87;100678.36;106952;1284;22876;-54
2022/10/28 00:36:15;;;;;;;15.80;11.80;;;;;;;10.91;85.84;100680.11;105484;1293;22478;-52
2022/10/28 00:38:42;;;;;;;13.30;10.20;;;;;;;10.90;85.93;100677.20;107030;1297;22127;-54
2022/10/28 00:41:10;;;;;;;14.00;9.30;;;;;;;10.88;85.70;100675.45;107041;1299;22095;-53
2022/10/28 00:43:44;;;;;;;14.60;8.90;;;;;;;10.86;85.90;100679.55;106914;1294;22213;-54
2022/10/28 00:46:15;;;;;;;13.90;8.50;;;;;;;10.86;85.92;100681.77;107000;1300;22319;-54
2022/10/28 00:48:42;;;;;;;13.90;9.60;;;;;;;10.85;85.85;100687.36;106996;1278;22373;-54
2022/10/28 00:51:09;;;;;;;12.50;8.90;;;;;;;10.83;85.88;100686.88;106882;1302;22187;-54
2022/10/28 00:53:36;;;;;;;14.10;9.30;;;;;;;10.82;85.95;100691.05;107035;1300;22975;-54
2022/10/28 00:56:03;;;;;;;;;;;;;;;10.82;86.05;100692.69;107047;1300;22477;-54
2022/10/28 00:58:30;;;;;;;12.50;8.40;;;;;;;10.82;85.88;100691.65;107046;1300;22038;-54
2022/10/28 01:00:57;;;;;;;10.80;8.30;;;;;;;10.81;86.05;100691.35;107032;1300;23134;-54
2022/10/28 01:03:23;;;;;;;;;;;;;;;10.80;86.06;100691.22;106945;1293;23138;-54
2022/10/28 01:05:51;;;;;;;13.10;8.20;;;;;;;10.73;85.99;100683.77;107071;1300;22286;-54
2022/10/28 01:08:17;;;;;;;13.20;9.00;;;;;;;10.77;86.07;100691.02;107024;1294;22141;-54
2022/10/28 01:11:12;;;;;;;13.90;8.80;;;;;;;10.76;86.07;100686.41;107040;1290;22398;-54
2022/10/28 01:14:21;;;;;;;11.70;8.70;;;;;;;10.72;86.10;100680.58;106956;1297;22263;-54
2022/10/28 01:17:00;;;;;;;12.70;8.90;;;;;;;10.74;86.20;100689.53;107015;1300;22284;-54
2022/10/28 01:19:39;;;;;;;12.90;8.90;;;;;;;10.74;86.17;100688.44;107037;1294;22152;-54
2022/10/28 01:22:14;;;;;;;12.80;8.50;;;;;;;10.71;86.27;100684.25;107054;1300;22910;-54
2022/10/28 01:24:48;;;;;;;11.60;8.70;;;;;;;10.74;86.19;100693.39;107016;1300;22149;-53
2022/10/28 01:27:27;;;;;;;11.70;9.10;;;;;;;10.74;86.25;100692.02;107005;1291;22116;-53
2022/10/28 01:30:08;;;;;;;15.60;9.00;;;;;;;10.74;86.19;100694.98;107041;1285;22184;-53
2022/10/28 01:32:59;;;;;;;14.60;9.50;;;;;;;10.75;86.16;100690.52;106906;1288;22983;-53
2022/10/28 01:35:36;;;;;;;13.00;9.20;;;;;;;10.74;86.24;100690.71;107012;1293;22126;-54
2022/10/28 01:38:33;;;;;;;10.40;9.10;;;;;;;10.73;86.21;100688.12;106931;1300;22237;-53
2022/10/28 01:41:27;;;;;;;12.40;9.20;;;;;;;10.72;86.06;100688.80;107066;1292;22914;-53
2022/10/28 01:44:01;;;;;;;10.20;8.40;;;;;;;10.71;86.17;100694.10;107016;1300;22186;-54
2022/10/28 01:46:42;;;;;;;18.60;9.20;;;;;;;10.69;86.13;100692.27;106890;1295;22128;-53
2022/10/28 01:49:38;;;;;;;15.30;9.20;;;;;;;10.69;86.30;100689.30;106864;1288;22232;-54
2022/10/28 01:52:06;;;;;;;11.60;8.60;;;;;;;10.68;86.20;100690.83;106937;1300;22172;-53
2022/10/28 01:54:33;;;;;;;11.70;8.90;;;;;;;10.68;86.27;100693.59;106928;1300;22238;-53
2022/10/28 01:56:59;;;;;;;;;;;;;;;10.68;86.34;100692.63;106889;1300;22348;-53
2022/10/28 01:59:27;;;;;;;10.80;8.10;;;;;;;10.68;86.23;100695.06;106834;1300;22129;-53
2022/10/28 02:01:54;;;;;;;12.80;9.00;;;;;;;10.66;86.30;100697.66;106869;1300;22554;-54
2022/10/28 02:04:21;;;;;;;12.00;8.40;;;;;;;10.66;86.21;100697.37;107048;1286;22161;-53
2022/10/28 02:06:52;;;;;;;;;;;;;;;10.65;86.29;100697.17;107049;1300;22400;-53
2022/10/28 02:09:35;;;;;;;12.30;8.10;;;;;;;10.64;86.36;100700.20;107051;1300;22148;-53
2022/10/28 02:12:19;;;;;;;13.40;9.20;;;;;;;10.63;86.55;100695.60;106969;1300;22130;-53
2022/10/28 02:15:11;;;;;;;15.10;9.20;;;;;;;10.64;86.53;100697.43;106901;1286;22200;-53
2022/10/28 02:19:59;;;;;;;11.90;9.00;;;;;;;10.64;86.55;100690.71;99721;1318;544849;-52
2022/10/28 02:22:27;;;;;;;11.90;8.80;;;;;;;10.63;86.39;100691.99;106156;1312;22151;-53
2022/10/28 02:25:09;;;;;;;17.50;10.40;;;;;;;10.63;86.46;100688.90;106147;1312;22107;-53
2022/10/28 02:27:38;;;;;;;10.10;8.70;;;;;;;10.62;86.42;100684.84;106011;1313;22138;-53
2022/10/28 02:30:05;;;;;;;15.10;9.70;;;;;;;10.61;86.59;100684.21;106095;1313;22120;-53
2022/10/28 02:32:37;;;;;;;14.80;10.10;;;;;;;10.60;86.61;100690.77;105544;1304;906061;-53
2022/10/28 02:35:06;;;;;;;13.90;9.40;;;;;;;10.59;86.57;100692.70;106388;1309;22234;-53
2022/10/28 02:37:33;;;;;;;14.50;9.80;;;;;;;10.58;86.62;100693.39;106329;1300;23473;-53
2022/10/28 02:40:01;;;;;;;;;;;;;;;10.58;86.66;100694.95;106182;1301;22407;-53
2022/10/28 02:42:34;;;;;;;14.10;9.70;;;;;;;10.56;86.57;100696.97;106371;1310;22225;-53
2022/10/28 02:45:26;;;;;;;12.70;10.00;;;;;;;10.55;86.55;100699.38;106169;1309;22279;-53
2022/10/28 02:48:14;;;;;;;14.20;9.30;;;;;;;10.53;86.63;100698.30;106212;1310;22217;-53
2022/10/28 02:50:46;;;;;;;12.90;9.30;;;;;;;10.52;86.76;100696.48;106428;1298;22850;-53
2022/10/28 02:53:21;;;;;;;13.30;10.10;;;;;;;10.49;86.75;100690.83;106204;1296;22789;-53
2022/10/28 02:55:50;;;;;;;13.00;9.10;;;;;;;10.51;86.75;100695.26;106347;1310;22210;-54
2022/10/28 02:58:17;;;;;;;14.70;9.50;;;;;;;10.50;86.77;100696.86;106189;1304;22125;-54
2022/10/28 03:00:44;;;;;;;;;;;;;;;10.49;86.76;100691.77;106197;1310;22388;-54
2022/10/28 03:03:11;;;;;;;15.00;10.20;;;;;;;10.47;86.64;100688.09;106341;1310;22995;-54
2022/10/28 03:05:37;;;;;;;14.40;10.10;;;;;;;10.43;86.74;100684.65;106193;1309;22134;-54
2022/10/28 03:08:04;;;;;;;;;;;;;;;10.45;86.67;100689.28;106550;1306;22392;-54
2022/10/28 03:10:31;;;;;;;12.40;9.90;;;;;;;10.43;86.59;100686.49;106536;1293;22257;-54
2022/10/28 03:12:57;;;;;;;;;;;;;;;10.41;86.54;100695.06;106525;1297;22490;-54
2022/10/28 03:15:24;;;;;;;12.40;8.40;;;;;;;10.40;86.51;100691.80;106495;1306;22210;-54
2022/10/28 03:17:51;;;;;;;;;;;;;;;10.37;86.80;100689.48;106541;1306;22478;-54
2022/10/28 03:20:18;;;;;;;11.50;8.60;;;;;;;10.37;86.62;100694.18;106524;1307;22550;-54
2022/10/28 03:22:45;;;;;;;13.40;10.20;;;;;;;10.36;86.64;100689.79;106545;1306;22128;-54
2022/10/28 03:25:12;;;;;;;;;;;;;;;10.34;86.65;100687.84;106500;1306;22414;-53
2022/10/28 03:27:40;;;;;;;10.50;8.30;;;;;;;10.32;86.58;100689.69;106507;1291;22265;-54
2022/10/28 03:30:07;;;;;;;15.30;10.10;;;;;;;10.31;86.59;100694.11;106485;1308;22284;-53
2022/10/28 03:32:34;;;;;;;14.30;9.60;;;;;;;10.29;86.69;100695.63;106523;1306;22178;-53
2022/10/28 03:35:01;;;;;;;15.70;9.60;;;;;;;10.28;86.63;100695.52;106487;1309;22214;-53
2022/10/28 03:37:27;;;;;;;;;;;;;;;10.27;86.70;100694.02;106605;1290;22372;-54
2022/10/28 03:39:54;;;;;;;16.90;9.00;;;;;;;10.27;86.78;100691.66;106529;1301;22430;-54
2022/10/28 03:42:21;;;;;;;;;;;;;;;10.26;86.72;100690.54;106523;1309;22578;-53
2022/10/28 03:44:47;;;;;;;16.60;9.00;;;;;;;10.26;86.80;100691.73;106485;1306;22357;-54
2022/10/28 03:47:14;;;;;;;;;;;;;;;10.24;86.74;100691.45;106557;1301;23534;-54
2022/10/28 03:49:41;;;;;;;12.50;9.20;;;;;;;10.22;86.85;100693.80;106536;1297;22243;-54
2022/10/28 03:52:07;;;;;;;14.10;9.90;;;;;;;10.20;86.74;100687.58;106533;1309;22124;-53
2022/10/28 03:54:34;;;;;;;;;;;;;;;10.19;86.89;100688.59;106512;1300;22354;-54
2022/10/28 03:57:01;;;;;;;14.10;9.10;;;;;;;10.17;86.93;100685.57;106553;1304;23248;-54
2022/10/28 03:59:27;;;;;;;;;;;;;;;10.15;87.04;100688.38;106541;1301;22603;-54
2022/10/28 04:01:54;;;;;;;16.10;8.30;;;;;;;10.13;86.93;100686.31;106501;1301;22113;-54
2022/10/28 04:04:21;;;;;;;16.20;10.80;;;;;;;10.11;87.15;100681.13;106507;1297;22154;-54
2022/10/28 04:06:51;;;;;;;19.40;10.60;;;;;;;10.10;87.05;100683.16;106549;1309;22166;-54
2022/10/28 04:09:18;;;;;;;;;;;;;;;10.11;87.24;100677.23;106543;1307;22556;-54
2022/10/28 04:11:50;;;;;;;15.80;9.90;;;;;;;10.11;87.22;100675.07;106509;1292;22231;-54
2022/10/28 04:14:17;;;;;;;17.30;10.80;;;;;;;10.09;87.17;100682.18;106546;1306;22175;-54
2022/10/28 04:16:44;;;;;;;;;;;;;;;10.07;87.10;100684.09;106512;1307;23462;-54
2022/10/28 04:19:10;;;;;;;13.20;10.10;;;;;;;10.04;87.13;100685.33;106471;1309;22134;-54
2022/10/28 04:21:37;;;;;;;14.40;10.00;;;;;;;10.03;87.35;100686.27;106509;1308;22236;-54
2022/10/28 04:24:04;;;;;;;;;;;;;;;10.03;87.47;100686.48;106520;1299;22323;-54
2022/10/28 04:26:31;;;;;;;17.40;11.00;;;;;;;10.02;87.49;100683.89;106940;1300;22346;-54
2022/10/28 04:28:57;;;;;;;;;;;;;;;9.99;87.39;100688.10;106947;1303;22417;-54
2022/10/28 04:31:24;;;;;;;16.20;10.90;;;;;;;9.97;87.39;100688.41;106819;1303;22137;-54
2022/10/28 04:33:51;;;;;;;;;;;;;;;9.96;87.42;100687.41;106829;1300;22509;-54
2022/10/28 04:36:18;;;;;;;20.50;11.50;;;;;;;9.95;87.56;100688.10;106914;1300;22131;-54
2022/10/28 04:38:44;;;;;;;15.00;11.20;;;;;;;9.95;87.70;100685.48;106839;1295;22129;-54
2022/10/28 04:41:11;;;;;;;;;;;;;;;9.95;87.55;100685.81;106856;1303;22411;-53
2022/10/28 04:43:38;;;;;;;18.30;12.30;;;;;;;9.95;87.62;100682.60;106809;1300;22126;-54
2022/10/28 04:46:05;;;;;;;20.40;12.40;;;;;;;9.93;87.54;100682.89;106836;1296;22235;-53
2022/10/28 04:48:32;;;;;;;;;;;;;;;9.93;87.75;100683.32;106886;1300;23242;-53
2022/10/28 04:50:59;;;;;;;16.70;11.60;;;;;;;9.92;87.73;100686.67;106861;1287;23361;-53
2022/10/28 04:53:25;;;;;;;;;;;;;;;9.91;87.67;100686.02;106866;1294;22394;-53
2022/10/28 04:55:56;;;;;;;17.20;11.40;;;;;;;9.89;87.67;100685.15;106865;1301;22111;-53
2022/10/28 04:58:24;;;;;;;16.80;11.60;;;;;;;9.88;87.93;100683.11;106963;1300;22145;-54
2022/10/28 05:00:50;;;;;;;16.70;11.10;;;;;;;9.86;87.73;100679.53;106881;1301;22108;-55
2022/10/28 05:03:17;;;;;;;;;;;;;;;9.88;87.83;100682.27;106837;1300;22406;-54
2022/10/28 05:05:44;;;;;;;18.60;10.80;;;;;;;9.87;87.94;100685.63;106827;1285;22132;-54
2022/10/28 05:08:10;;;;;;;;;;;;;;;9.86;88.04;100688.11;106930;1300;22429;-53
2022/10/28 05:10:37;;;;;;;25.30;12.00;;;;;;;9.86;88.07;100687.70;106823;1282;22874;-53
2022/10/28 05:13:04;;;;;;;;;;;;;;;9.85;88.21;100686.66;106828;1294;22336;-54
2022/10/28 05:15:31;;;;;;;14.50;10.50;;;;;;;9.82;88.08;100686.67;106777;1274;22219;-54
2022/10/28 05:17:57;;;;;;;;;;;;;;;9.84;88.32;100691.35;106867;1285;23036;-54
2022/10/28 05:20:24;;;;;;;14.80;10.90;;;;;;;9.83;88.31;100694.16;106857;1289;23214;-55
2022/10/28 05:22:52;;;;;;;16.60;11.50;;;;;;;9.84;88.53;100694.66;106848;1289;22134;-53
2022/10/28 05:25:20;;;;;;;15.90;12.10;;;;;;;9.84;88.50;100698.77;106852;1297;22135;-53
2022/10/28 05:27:46;;;;;;;19.70;13.40;;;;;;;9.85;88.63;100695.69;106861;1292;22116;-58
2022/10/28 05:30:13;;;;;;;;;;;;;;;9.87;88.63;100702.98;106878;1303;22358;-55
2022/10/28 05:32:40;;;;;;;17.80;10.90;;;;;;;9.86;88.61;100703.65;107061;1285;22877;-54
2022/10/28 05:35:07;;;;;;;;;;;;;;;9.85;88.52;100699.22;107008;1300;23462;-55
2022/10/28 05:37:33;;;;;;;14.80;11.50;;;;;;;9.85;88.57;100701.02;107048;1299;22152;-55
2022/10/28 05:40:00;;;;;;;;;;;;;;;9.85;88.63;100703.48;107049;1298;22537;-55
2022/10/28 05:42:27;;;;;;;17.90;12.70;;;;;;;9.86;88.84;100702.36;107016;1303;22142;-55
2022/10/28 05:44:53;;;;;;;17.80;12.10;;;;;;;9.86;88.84;100704.66;107041;1295;22246;-55
2022/10/28 05:47:20;;;;;;;;;;;;;;;9.87;88.91;100703.75;107077;1300;22370;-55
2022/10/28 05:49:47;;;;;;;21.30;14.70;;;;;;;9.88;88.85;100706.14;107016;1295;22184;-55
2022/10/28 05:52:13;;;;;;;30.50;21.20;;;;;;;9.90;88.90;100711.25;107052;1288;23113;-55
2022/10/28 05:54:40;;;;;;;;;;;;;;;9.90;88.95;100712.41;107046;1296;22364;-54
2022/10/28 05:57:07;;;;;;;29.30;25.20;;;;;;;9.91;88.87;100710.80;107047;1300;22183;-55
2022/10/28 05:59:34;;;;;;;;;;;;;;;9.92;88.97;100716.50;107059;1287;22416;-54
2022/10/28 06:02:00;;;;;;;19.20;13.10;;;;;;;9.93;89.06;100712.88;107012;1291;22104;-54
2022/10/28 06:04:27;;;;;;;;;;;;;;;9.93;88.94;100710.83;107045;1297;22461;-55
2022/10/28 06:06:55;;;;;;;17.30;12.60;;;;;;;9.94;89.02;100718.75;106840;1292;22165;-55
2022/10/28 06:09:21;;;;;;;18.50;12.60;;;;;;;9.95;89.00;100721.87;107015;1298;22125;-55
2022/10/28 06:11:48;;;;;;;;;;;;;;;9.96;88.67;100722.96;107075;1303;22328;-55
2022/10/28 06:14:15;;;;;;;17.00;12.00;;;;;;;9.97;88.95;100720.74;107053;1302;22879;-54
2022/10/28 06:16:42;;;;;;;;;;;;;;;9.98;88.90;100722.16;107029;1292;22433;-55
2022/10/28 06:19:09;;;;;;;15.70;11.80;;;;;;;10.01;88.93;100724.11;107036;1303;22936;-55
2022/10/28 06:21:36;;;;;;;;;;;;;;;10.03;88.83;100726.39;107007;1298;22419;-55
2022/10/28 06:24:02;;;;;;;20.90;12.00;;;;;;;10.03;88.89;100728.28;107065;1300;22181;-54
2022/10/28 06:26:29;;;;;;;17.20;11.30;;;;;;;10.04;88.88;100727.27;107063;1298;22161;-55
2022/10/28 06:28:56;;;;;;;17.70;11.50;;;;;;;10.07;88.91;100732.15;107112;1300;22243;-54
2022/10/28 06:31:22;;;;;;;;;;;;;;;10.11;88.92;100734.86;106988;1299;22391;-55
2022/10/28 06:33:49;;;;;;;21.70;10.90;;;;;;;10.13;88.70;100733.61;107061;1303;22156;-55
2022/10/28 06:36:16;;;;;;;;;;;;;;;10.14;88.75;100736.61;107070;1282;22362;-54
2022/10/28 06:38:42;;;;;;;15.20;10.90;;;;;;;10.17;88.55;100737.35;107052;1288;22219;-55
2022/10/28 06:41:09;;;;;;;15.10;10.40;;;;;;;10.19;88.59;100736.55;107055;1303;22215;-55
2022/10/28 06:43:36;;;;;;;;;;;;;;;10.21;88.55;100736.13;107047;1292;22359;-54
2022/10/28 06:46:04;;;;;;;14.60;10.80;;;;;;;10.21;88.52;100732.01;107037;1298;22135;-55
2022/10/28 06:48:31;;;;;;;18.90;11.80;;;;;;;10.25;88.33;100734.90;107038;1301;22142;-54
2022/10/28 06:50:58;;;;;;;;;;;;;;;10.27;88.25;100730.23;107025;1289;22856;-55
2022/10/28 06:53:25;;;;;;;19.10;11.10;;;;;;;10.27;88.61;100731.10;107025;1300;22194;-56
2022/10/28 06:55:55;;;;;;;19.80;12.20;;;;;;;10.35;88.68;100738.36;107038;1300;22105;-53
2022/10/28 06:58:23;;;;;;;20.00;12.40;;;;;;;10.39;88.70;100736.48;107046;1300;22269;-55
2022/10/28 07:00:50;;;;;;;24.00;11.90;;;;;;;10.44;88.77;100733.22;106877;1300;22108;-55
2022/10/28 07:03:17;;;;;;;19.60;12.20;;;;;;;10.49;88.66;100727.10;107078;1292;22125;-55
2022/10/28 07:05:45;;;;;;;17.40;12.60;;;;;;;10.55;88.47;100735.98;107015;1295;22137;-55
2022/10/28 07:08:13;;;;;;;17.90;11.90;;;;;;;10.60;88.29;100733.88;107027;1299;22342;-54
2022/10/28 07:10:40;;;;;;;18.70;11.30;;;;;;;10.64;88.23;100733.03;107013;1298;22262;-55
2022/10/28 07:13:07;;;;;;;18.90;11.10;;;;;;;10.69;88.19;100728.63;107014;1300;22358;-54
2022/10/28 07:15:33;;;;;;;;;;;;;;;10.75;88.02;100727.48;107071;1300;23502;-54
2022/10/28 07:18:01;;;;;;;15.00;11.60;;;;;;;10.79;87.96;100726.25;106753;1292;22238;-55
2022/10/28 07:20:30;;;;;;;24.10;12.80;;;;;;;10.83;87.49;100725.97;107001;1286;23035;-55
2022/10/28 07:22:58;;;;;;;17.90;11.60;;;;;;;10.86;87.40;100722.63;107033;1302;22106;-55
2022/10/28 07:25:26;;;;;;;16.60;12.00;;;;;;;10.92;87.35;100724.52;106976;1286;22225;-54
2022/10/28 07:27:53;;;;;;;16.60;12.10;;;;;;;10.96;87.06;100719.19;107014;1300;22118;-54
2022/10/28 07:30:20;;;;;;;19.90;12.60;;;;;;;11.01;87.08;100721.70;107070;1295;22628;-54
2022/10/28 07:32:47;;;;;;;;;;;;;;;11.05;86.91;100716.98;107039;1298;22390;-53
2022/10/28 07:35:13;;;;;;;23.40;12.50;;;;;;;11.09;86.53;100713.77;107014;1295;22209;-59
2022/10/28 07:37:40;;;;;;;;;;;;;;;11.12;86.69;100711.93;107040;1299;22488;-60
2022/10/28 07:40:07;;;;;;;20.10;11.80;;;;;;;11.18;86.40;100707.86;106966;1284;22184;-60
2022/10/28 07:42:34;;;;;;;17.90;12.10;;;;;;;11.22;86.30;100707.56;106796;1301;22879;-60
2022/10/28 07:45:01;;;;;;;;;;;;;;;11.26;85.87;100707.65;107007;1291;22557;-61
2022/10/28 07:47:27;;;;;;;16.40;10.20;;;;;;;11.29;85.57;100709.20;106976;1285;22863;-61
2022/10/28 07:49:54;;;;;;;;;;;;;;;11.33;85.53;100713.01;107091;1295;23037;-60
2022/10/28 07:52:21;;;;;;;15.10;10.10;;;;;;;11.36;85.32;100708.80;107021;1300;22351;-60
2022/10/28 07:54:49;;;;;;;;;;;;;;;11.40;84.96;100706.17;107030;1300;22355;-60
2022/10/28 07:57:15;;;;;;;14.00;8.70;;;;;;;11.44;84.80;100703.25;107059;1284;23112;-61
2022/10/28 07:59:42;;;;;;;;;;;;;;;11.48;84.48;100701.77;107082;1300;22453;-61
2022/10/28 08:02:14;;;;;;;16.40;9.00;;;;;;;11.52;84.26;100707.94;107033;1277;22181;-61
2022/10/28 08:04:41;;;;;;;16.60;9.90;;;;;;;11.55;84.14;100705.88;106937;1300;22143;-61
2022/10/28 08:07:07;;;;;;;;;;;;;;;11.58;83.87;100707.93;107046;1286;23141;-60
2022/10/28 08:09:34;;;;;;;11.90;8.30;;;;;;;11.62;83.53;100705.46;107038;1298;22118;-61
2022/10/28 08:12:01;;;;;;;;;;;;;;;11.63;83.09;100705.81;107086;1300;22428;-61
2022/10/28 08:14:27;;;;;;;12.80;8.60;;;;;;;11.69;82.68;100711.02;106984;1299;22422;-61
2022/10/28 08:16:54;;;;;;;;;;;;;;;11.71;82.40;100709.09;104065;1291;26216;-60
2022/10/28 08:19:21;;;;;;;17.60;9.90;;;;;;;11.73;82.31;100707.89;102726;1282;22756;-60
2022/10/28 08:21:47;;;;;;;;;;;;;;;11.76;82.47;100704.88;102646;1276;23993;-60
2022/10/28 08:24:14;;;;;;;22.00;11.80;;;;;;;11.75;82.37;100694.11;102764;1291;22746;-60
2022/10/28 08:26:41;;;;;;;;;;;;;;;11.84;82.18;100700.04;102891;1282;22460;-60
2022/10/28 08:29:11;;;;;;;12.90;9.20;;;;;;;11.86;82.11;100705.24;102842;1282;24153;-60
2022/10/28 08:31:38;;;;;;;18.50;10.00;;;;;;;11.89;81.96;100706.24;102865;1281;22496;-60
2022/10/28 08:34:05;;;;;;;18.00;11.80;;;;;;;11.93;81.86;100709.39;106796;1291;22141;-61
2022/10/28 08:36:32;;;;;;;17.40;10.10;;;;;;;11.98;81.55;100713.06;106997;1285;22961;-61
2022/10/28 08:39:00;;;;;;;;;;;;;;;12.01;81.44;100715.65;107037;1300;23533;-61
2022/10/28 08:41:28;;;;;;;15.40;8.60;;;;;;;12.05;81.08;100710.54;107009;1291;22159;-61
2022/10/28 08:44:32;;;;;;;17.00;9.20;;;;;;;12.10;80.89;100714.70;107024;1300;22192;-61
2022/10/28 08:47:41;;;;;;;13.60;9.80;;;;;;;12.17;80.90;100712.67;103811;1282;22517;-60
2022/10/28 08:50:12;;;;;;;12.20;9.40;;;;;;;12.23;80.15;100710.45;102822;1292;25314;-57
2022/10/28 08:52:46;;;;;;;13.50;9.20;;;;;;;12.29;79.84;100713.48;102698;1283;22672;-59
2022/10/28 08:55:34;;;;;;;14.50;8.70;;;;;;;12.34;79.39;100712.34;106651;1304;22204;-60
2022/10/28 08:58:09;;;;;;;14.20;9.20;;;;;;;12.39;79.16;100705.67;107033;1299;23307;-60
2022/10/28 09:00:36;;;;;;;12.00;8.80;;;;;;;12.45;79.10;100705.17;107050;1292;22219;-60
2022/10/28 09:03:16;;;;;;;14.40;8.40;;;;;;;12.50;78.67;100701.42;106866;1299;22829;-60
2022/10/28 09:05:49;;;;;;;13.10;8.80;;;;;;;12.56;78.19;100698.13;107037;1299;22703;-60
2022/10/28 09:08:18;;;;;;;11.90;8.60;;;;;;;12.63;78.06;100698.67;106869;1278;22620;-60
2022/10/28 09:11:02;;;;;;;24.00;16.80;;;;;;;12.70;77.14;100697.88;106850;1299;23422;-60
2022/10/28 09:13:45;;;;;;;85.30;60.10;;;;;;;12.76;76.18;100698.09;106901;1303;22128;-60
2022/10/28 09:16:25;;;;;;;43.60;31.40;;;;;;;12.80;75.14;100695.73;107030;1300;22173;-60
2022/10/28 09:18:53;;;;;;;20.80;13.30;;;;;;;12.85;74.82;100695.15;106893;1300;22191;-60
2022/10/28 09:21:43;;;;;;;11.20;7.80;;;;;;;12.88;74.81;100693.69;107072;1300;22185;-60
2022/10/28 09:24:17;;;;;;;9.50;6.80;;;;;;;12.92;73.67;100688.90;106873;1299;22201;-60
2022/10/28 09:27:15;;;;;;;10.40;6.60;;;;;;;12.94;72.81;100687.41;106899;1300;22238;-60
2022/10/28 09:29:53;;;;;;;9.20;5.00;;;;;;;12.95;72.03;100683.94;106906;1288;22396;-60
2022/10/28 09:32:34;;;;;;;8.30;4.50;;;;;;;12.94;70.99;100687.30;106838;1294;23033;-60
2022/10/28 09:35:07;;;;;;;11.30;8.80;;;;;;;12.94;70.48;100681.78;107051;1295;22123;-60
2022/10/28 09:37:36;;;;;;;12.80;8.20;;;;;;;12.93;70.31;100678.10;106905;1298;22166;-60
2022/10/28 09:40:20;;;;;;;9.70;6.90;;;;;;;12.98;69.90;100680.54;106889;1295;22146;-61
2022/10/28 09:43:05;;;;;;;28.40;23.00;;;;;;;13.01;69.76;100676.97;106906;1300;22182;-60
2022/10/28 09:45:34;;;;;;;8.40;7.10;;;;;;;13.04;68.76;100675.06;106234;1285;22488;-59
2022/10/28 09:48:10;;;;;;;8.90;6.30;;;;;;;13.06;68.44;100669.96;102602;1278;24796;-59
2022/10/28 09:50:36;;;;;;;9.60;6.30;;;;;;;13.09;68.22;100669.02;106990;1300;22146;-60
2022/10/28 09:53:42;;;;;;;6.10;4.50;;;;;;;13.12;68.17;100669.13;106930;1279;22823;-60
2022/10/28 09:56:09;;;;;;;9.50;5.50;;;;;;;13.15;67.33;100669.14;106944;1300;22993;-60
2022/10/28 09:58:36;;;;;;;8.40;4.00;;;;;;;13.18;66.67;100664.71;107082;1300;22341;-60
2022/10/28 10:01:03;;;;;;;7.40;4.40;;;;;;;13.18;66.51;100661.55;107020;1300;22130;-60
2022/10/28 10:03:30;;;;;;;5.60;3.60;;;;;;;13.24;66.51;100660.89;106975;1294;22151;-60
2022/10/28 10:06:00;;;;;;;5.50;3.20;;;;;;;13.27;66.07;100658.42;106863;1300;22294;-61
2022/10/28 10:08:30;;;;;;;6.20;3.60;;;;;;;13.30;65.38;100655.23;107006;1300;22113;-61
2022/10/28 10:10:59;;;;;;;5.50;3.40;;;;;;;13.31;65.06;100649.45;106832;1299;22360;-60
2022/10/28 10:13:28;;;;;;;3.80;2.50;;;;;;;13.36;64.66;100656.77;106976;1290;22127;-61
2022/10/28 10:15:57;;;;;;;3.80;2.00;;;;;;;13.39;64.24;100652.23;106883;1300;22114;-62
2022/10/28 10:18:28;;;;;;;2.80;2.20;;;;;;;13.43;63.73;100653.16;106827;1299;22112;-62
2022/10/28 10:20:59;;;;;;;6.30;3.10;;;;;;;13.48;63.13;100647.76;106960;1300;23469;-61
2022/10/28 10:23:29;;;;;;;4.10;2.60;;;;;;;13.52;62.85;100646.95;106895;1294;22172;-62
2022/10/28 10:26:07;;;;;;;4.70;3.00;;;;;;;13.56;62.62;100643.17;106956;1283;22124;-61
2022/10/28 10:28:48;;;;;;;8.40;3.70;;;;;;;13.58;62.77;100645.49;106864;1296;22864;-62
2022/10/28 10:31:19;;;;;;;5.20;3.50;;;;;;;13.60;62.89;100644.05;107023;1296;22408;-61
2022/10/28 10:33:50;;;;;;;7.10;4.20;;;;;;;13.62;62.52;100645.29;106853;1284;22118;-61
2022/10/28 10:36:22;;;;;;;5.80;4.30;;;;;;;13.62;61.61;100643.16;102833;1296;22624;-63
2022/10/28 10:38:53;;;;;;;4.70;2.40;;;;;;;13.61;61.70;100643.52;106591;1286;22113;-61
2022/10/28 10:41:36;;;;;;;6.40;3.80;;;;;;;13.62;61.71;100641.23;106863;1300;22200;-60
2022/10/28 10:44:20;;;;;;;9.40;5.10;;;;;;;13.63;61.54;100638.03;106923;1299;22931;-61
2022/10/28 10:46:54;;;;;;;7.30;5.30;;;;;;;13.64;60.79;100638.11;107001;1299;22217;-61
2022/10/28 10:49:20;;;;;;;9.00;4.30;;;;;;;13.65;61.02;100635.31;106943;1302;23277;-61
2022/10/28 10:51:58;;;;;;;4.40;2.70;;;;;;;13.64;60.64;100634.11;107032;1291;22213;-61
2022/10/28 10:54:25;;;;;;;6.70;4.90;;;;;;;13.60;60.89;100635.02;106953;1294;22123;-61
2022/10/28 10:56:52;;;;;;;6.40;3.50;;;;;;;13.62;60.77;100638.66;106841;1302;22127;-61
2022/10/28 10:59:27;;;;;;;6.80;4.10;;;;;;;13.63;60.70;100635.98;106980;1299;22208;-61
2022/10/28 11:01:54;;;;;;;6.30;3.80;;;;;;;13.63;60.60;100632.48;106894;1299;22096;-61
2022/10/28 11:04:22;;;;;;;5.80;3.60;;;;;;;13.64;60.44;100632.08;106838;1288;22161;-61
2022/10/28 11:06:51;;;;;;;4.30;3.50;;;;;;;13.64;60.11;100630.27;106888;1303;23034;-61
2022/10/28 11:09:20;;;;;;;6.50;3.60;;;;;;;13.64;59.77;100630.87;106851;1299;22214;-62
2022/10/28 11:11:47;;;;;;;4.90;2.60;;;;;;;13.64;59.63;100630.83;106978;1299;22110;-61
2022/10/28 11:14:13;;;;;;;5.00;2.30;;;;;;;13.64;59.59;100627.24;106885;1302;22100;-61
2022/10/28 11:16:56;;;;;;;6.50;2.60;;;;;;;13.63;59.79;100623.13;106966;1290;22396;-61
2022/10/28 11:19:26;;;;;;;6.20;2.50;;;;;;;13.63;59.84;100618.80;106994;1299;22244;-61
2022/10/28 11:22:08;;;;;;;20.50;5.40;;;;;;;13.63;59.90;100619.89;107015;1291;22185;-61
2022/10/28 11:24:41;;;;;;;6.60;4.10;;;;;;;13.62;60.19;100618.95;107051;1289;22242;-61
2022/10/28 11:27:45;;;;;;;7.60;3.30;;;;;;;13.63;60.50;100619.40;107029;1299;22119;-62
2022/10/28 11:30:18;;;;;;;5.30;3.20;;;;;;;13.61;60.46;100613.58;107063;1292;22131;-62
2022/10/28 11:33:12;;;;;;;5.50;3.30;;;;;;;13.64;60.37;100612.58;106868;1294;22124;-62
2022/10/28 11:36:19;;;;;;;6.00;3.10;;;;;;;13.62;60.53;100605.27;106923;1289;22136;-61
2022/10/28 11:39:11;;;;;;;3.40;2.40;;;;;;;13.67;60.46;100603.27;106830;1300;22102;-62
2022/10/28 11:42:14;;;;;;;3.90;2.60;;;;;;;13.69;60.32;100603.46;106972;1300;22192;-62
2022/10/28 11:44:46;;;;;;;5.60;3.50;;;;;;;13.69;60.06;100595.92;106465;1306;22248;-62